createdAt,value
2022-11-05T00:00:05.615Z,101557.53
2022-11-05T00:02:50.906Z,101547.13
2022-11-05T00:05:36.332Z,101552.81
2022-11-05T00:08:23.874Z,101554.16
2022-11-05T00:10:50.737Z,101553.75
2022-11-05T00:13:38.455Z,101554.41
2022-11-05T00:16:40.383Z,101544.34
2022-11-05T00:19:07.247Z,101552.84
2022-11-05T00:21:53.799Z,101554.09
2022-11-05T00:24:39.580Z,101555.50
2022-11-05T00:27:06.137Z,101552.50
2022-11-05T00:29:32.618Z,101562.41
2022-11-05T00:31:59.312Z,101567.56
2022-11-05T00:34:25.955Z,101574.84
2022-11-05T00:36:52.517Z,101567.66
2022-11-05T00:39:19.075Z,101576.88
2022-11-05T00:42:05.649Z,101585.91
2022-11-05T00:44:50.489Z,101583.41
2022-11-05T00:47:35.495Z,101584.00
2022-11-05T00:50:02.052Z,101581.41
2022-11-05T00:52:47.016Z,101582.59
2022-11-05T00:55:16.266Z,101582.41
2022-11-05T00:57:42.744Z,101589.59
2022-11-05T01:00:11.223Z,101594.94
2022-11-05T01:02:37.994Z,101599.63
2022-11-05T01:05:04.913Z,101602.56
2022-11-05T01:07:33.818Z,101599.53
2022-11-05T01:10:00.395Z,101598.66
2022-11-05T01:12:26.960Z,101607.69
2022-11-05T01:14:53.539Z,101610.63
2022-11-05T01:17:20.078Z,101620.72
2022-11-05T01:19:46.608Z,101611.06
2022-11-05T01:22:13.394Z,101610.44
2022-11-05T01:24:41.122Z,101613.47
2022-11-05T01:27:07.655Z,101627.81
2022-11-05T01:29:36.437Z,101629.00
2022-11-05T01:32:03.054Z,101640.84
2022-11-05T01:34:32.061Z,101624.03
2022-11-05T01:36:58.595Z,101628.47
2022-11-05T01:39:25.157Z,101622.28
2022-11-05T01:41:51.687Z,101630.31
2022-11-05T01:44:52.254Z,101637.59
2022-11-05T01:47:43.218Z,101627.94
2022-11-05T01:50:34.709Z,101640.66
2022-11-05T01:53:14.160Z,101634.78
2022-11-05T01:55:45.939Z,101639.22
2022-11-05T01:58:18.645Z,101635.75
2022-11-05T02:00:45.489Z,101631.28
2022-11-05T02:03:16.324Z,101622.84
2022-11-05T02:05:43.573Z,101632.50
2022-11-05T02:08:19.632Z,101619.91
2022-11-05T02:10:49.067Z,101605.06
2022-11-05T02:13:15.618Z,101612.09
2022-11-05T02:15:55.813Z,101617.72
2022-11-05T02:18:45.596Z,101620.69
2022-11-05T02:21:45.613Z,101616.34
2022-11-05T02:24:23.639Z,101621.88
2022-11-05T02:26:54.683Z,101615.69
2022-11-05T02:29:33.112Z,101622.19
2022-11-05T02:32:04.961Z,101621.44
2022-11-05T02:34:55.825Z,101619.69
2022-11-05T02:37:28.588Z,101617.97
2022-11-05T02:40:10.963Z,101613.72
2022-11-05T02:43:09.408Z,101604.50
2022-11-05T02:46:03.167Z,101616.53
2022-11-05T02:48:41.508Z,101610.38
2022-11-05T02:51:16.581Z,101620.47
2022-11-05T02:53:46.157Z,101618.72
2022-11-05T02:56:26.927Z,101604.06
2022-11-05T02:58:55.747Z,101615.47
2022-11-05T03:01:22.401Z,101621.09
2022-11-05T03:03:53.153Z,101602.44
2022-11-05T03:06:52.020Z,101608.41
2022-11-05T03:09:49.369Z,101616.75
2022-11-05T03:12:24.985Z,101623.16
2022-11-05T03:15:07.223Z,101616.09
2022-11-05T03:17:45.067Z,101615.44
2022-11-05T03:20:23.435Z,101621.84
2022-11-05T03:23:20.883Z,101617.41
2022-11-05T03:25:53.591Z,101612.19
2022-11-05T03:28:28.035Z,101599.16
2022-11-05T03:30:59.343Z,101600.13
2022-11-05T03:33:29.669Z,101616.94
2022-11-05T03:36:01.632Z,101604.59
2022-11-05T03:38:35.080Z,101618.78
2022-11-05T03:41:07.483Z,101614.56
2022-11-05T03:43:40.630Z,101624.53
2022-11-05T03:46:16.003Z,101618.66
2022-11-05T03:48:47.352Z,101623.00
2022-11-05T03:51:27.472Z,101623.00
2022-11-05T03:53:57.797Z,101623.13
2022-11-05T03:56:36.951Z,101609.31
2022-11-05T03:59:05.961Z,101626.03
2022-11-05T04:01:32.952Z,101629.91
2022-11-05T04:04:01.832Z,101629.81
2022-11-05T04:06:49.543Z,101629.16
2022-11-05T04:09:34.819Z,101641.84
2022-11-05T04:12:19.963Z,101633.16
2022-11-05T04:14:46.543Z,101641.84
2022-11-05T04:17:13.038Z,101651.81
2022-11-05T04:20:02.304Z,101648.34
2022-11-05T04:22:49.785Z,101650.28
2022-11-05T04:25:17.877Z,101644.88
2022-11-05T04:27:44.964Z,101657.78
2022-11-05T04:30:19.361Z,101626.72
2022-11-05T04:33:16.471Z,101655.25
2022-11-05T04:35:46.118Z,101653.41
2022-11-05T04:38:15.311Z,101636.59
2022-11-05T04:40:45.892Z,101648.09
2022-11-05T04:43:17.939Z,101652.66
2022-11-05T04:45:45.348Z,101653.91
2022-11-05T04:48:12.439Z,101618.19
2022-11-05T04:50:39.293Z,101656.81
2022-11-05T04:53:05.859Z,101647.84
2022-11-05T04:55:32.436Z,101648.03
2022-11-05T04:58:01.257Z,101661.38
2022-11-05T05:00:27.777Z,101670.38
2022-11-05T05:02:59.242Z,101660.84
2022-11-05T05:05:30.518Z,101674.19
2022-11-05T05:08:05.012Z,101662.59
2022-11-05T05:10:32.529Z,101675.13
2022-11-05T05:12:59.001Z,101678.59
2022-11-05T05:15:25.512Z,101676.28
2022-11-05T05:17:52.893Z,101674.13
2022-11-05T05:20:38.656Z,101665.09
2022-11-05T05:23:07.424Z,101692.16
2022-11-05T05:25:34.057Z,101703.47
2022-11-05T05:28:00.592Z,101702.50
2022-11-05T05:30:27.121Z,101692.84
2022-11-05T05:32:53.658Z,101701.75
2022-11-05T05:35:22.692Z,101696.72
2022-11-05T05:37:49.300Z,101697.03
2022-11-05T05:40:18.135Z,101696.47
2022-11-05T05:42:47.022Z,101693.88
2022-11-05T05:45:13.654Z,101693.09
2022-11-05T05:47:43.244Z,101706.56
2022-11-05T05:50:09.861Z,101694.06
2022-11-05T05:52:36.425Z,101698.81
2022-11-05T05:55:02.922Z,101698.94
2022-11-05T05:57:29.418Z,101698.28
2022-11-05T05:59:56.060Z,101696.63
2022-11-05T06:02:22.973Z,101695.84
2022-11-05T06:04:49.719Z,101699.63
2022-11-05T06:07:16.279Z,101705.25
2022-11-05T06:09:42.799Z,101706.22
2022-11-05T06:12:09.341Z,101702.84
2022-11-05T06:14:35.864Z,101704.78
2022-11-05T06:17:02.357Z,101690.00
2022-11-05T06:19:29.245Z,101706.91
2022-11-05T06:21:55.798Z,101714.38
2022-11-05T06:24:22.375Z,101709.81
2022-11-05T06:26:48.848Z,101710.81
2022-11-05T06:29:15.353Z,101709.91
2022-11-05T06:31:41.882Z,101710.91
2022-11-05T06:34:08.454Z,101713.72
2022-11-05T06:36:34.980Z,101696.06
2022-11-05T06:39:01.805Z,101702.16
2022-11-05T06:41:30.849Z,101712.88
2022-11-05T06:43:57.382Z,101715.59
2022-11-05T06:46:24.002Z,101713.81
2022-11-05T06:48:51.075Z,101703.25
2022-11-05T06:51:19.862Z,101709.25
2022-11-05T06:53:46.576Z,101703.16
2022-11-05T06:56:13.371Z,101715.44
2022-11-05T06:58:42.268Z,101707.41
2022-11-05T07:01:10.010Z,101722.59
2022-11-05T07:03:37.916Z,101719.03
2022-11-05T07:06:06.149Z,101712.88
2022-11-05T07:08:34.522Z,101715.53
2022-11-05T07:11:01.356Z,101729.44
2022-11-05T07:13:28.116Z,101717.19
2022-11-05T07:15:57.476Z,101738.28
2022-11-05T07:18:24.081Z,101737.38
2022-11-05T07:20:50.606Z,101698.97
2022-11-05T07:23:17.574Z,101733.81
2022-11-05T07:25:44.910Z,101741.34
2022-11-05T07:28:12.175Z,101747.53
2022-11-05T07:30:39.068Z,101739.22
2022-11-05T07:33:05.633Z,101721.81
2022-11-05T07:35:32.224Z,101752.56
2022-11-05T07:37:59.387Z,101741.06
2022-11-05T07:40:27.782Z,101742.59
2022-11-05T07:42:56.554Z,101754.66
2022-11-05T07:45:23.439Z,101759.97
2022-11-05T07:47:57.938Z,101762.47
2022-11-05T07:50:27.304Z,101757.25
2022-11-05T07:52:54.298Z,101748.84
2022-11-05T07:55:21.093Z,101761.78
2022-11-05T07:57:51.124Z,101752.91
2022-11-05T08:00:24.440Z,101760.28
2022-11-05T08:03:09.235Z,101755.56
2022-11-05T08:05:43.481Z,101756.13
2022-11-05T08:08:16.340Z,101749.50
2022-11-05T08:10:43.292Z,101750.19
2022-11-05T08:13:10.527Z,101758.09
2022-11-05T08:15:37.407Z,101749.19
2022-11-05T08:18:06.768Z,101749.34
2022-11-05T08:20:36.303Z,101757.28
2022-11-05T08:23:03.143Z,101740.69
2022-11-05T08:25:31.624Z,101744.56
2022-11-05T08:28:00.236Z,101751.50
2022-11-05T08:30:27.814Z,101746.50
2022-11-05T08:32:59.968Z,101748.69
2022-11-05T08:35:28.283Z,101754.44
2022-11-05T08:38:02.986Z,101758.66
2022-11-05T08:40:31.957Z,101760.19
2022-11-05T08:43:00.224Z,101753.56
2022-11-05T08:45:27.454Z,101758.78
2022-11-05T08:48:09.543Z,101758.34
2022-11-05T08:50:38.321Z,101753.47
2022-11-05T08:53:06.216Z,101754.91
2022-11-05T08:55:38.425Z,101758.25
2022-11-05T08:58:10.603Z,101757.34
2022-11-05T09:00:37.966Z,101747.09
2022-11-05T09:03:07.171Z,101745.97
2022-11-05T09:05:39.289Z,101752.38
2022-11-05T09:08:07.925Z,101744.00
2022-11-05T09:10:34.625Z,101754.28
2022-11-05T09:13:01.414Z,101752.66
2022-11-05T09:15:29.714Z,101758.13
2022-11-05T09:17:56.580Z,101758.13
2022-11-05T09:20:23.752Z,101744.38
2022-11-05T09:22:50.701Z,101760.69
2022-11-05T09:25:17.329Z,101739.00
2022-11-05T09:27:44.076Z,101740.22
2022-11-05T09:30:12.206Z,101749.97
2022-11-05T09:32:39.000Z,101743.00
2022-11-05T09:35:06.809Z,101723.31
2022-11-05T09:37:33.494Z,101759.31
2022-11-05T09:40:00.091Z,101755.84
2022-11-05T09:42:42.465Z,101770.38
2022-11-05T09:45:16.910Z,101765.00
2022-11-05T09:47:53.898Z,101762.75
2022-11-05T09:50:30.571Z,101753.22
2022-11-05T09:52:57.909Z,101771.03
2022-11-05T09:55:29.620Z,101769.38
2022-11-05T09:58:02.270Z,101772.06
2022-11-05T10:00:31.469Z,101767.97
2022-11-05T10:03:04.653Z,101778.22
2022-11-05T10:05:33.591Z,101785.22
2022-11-05T10:08:04.578Z,101782.84
2022-11-05T10:10:41.187Z,101779.66
2022-11-05T10:13:35.936Z,101779.66
2022-11-05T10:16:06.840Z,101794.00
2022-11-05T10:18:36.395Z,101799.06
2022-11-05T10:21:05.674Z,101802.28
2022-11-05T10:23:32.913Z,101799.41
2022-11-05T10:26:05.292Z,101798.38
2022-11-05T10:28:33.573Z,101787.44
2022-11-05T10:31:03.523Z,101801.50
2022-11-05T10:33:32.941Z,101795.38
2022-11-05T10:36:09.635Z,101801.03
2022-11-05T10:38:36.425Z,101798.03
2022-11-05T10:41:14.937Z,101807.81
2022-11-05T10:43:55.196Z,101802.63
2022-11-05T10:46:38.238Z,101801.94
2022-11-05T10:49:22.826Z,101798.94
2022-11-05T10:51:57.359Z,101784.09
2022-11-05T10:54:30.211Z,101778.00
2022-11-05T10:56:56.875Z,101793.63
2022-11-05T10:59:29.062Z,101796.34
2022-11-05T11:02:08.320Z,101787.28
2022-11-05T11:04:37.851Z,101793.03
2022-11-05T11:07:05.207Z,101785.53
2022-11-05T11:09:36.114Z,101779.34
2022-11-05T11:12:15.843Z,101793.47
2022-11-05T11:14:42.395Z,101784.44
2022-11-05T11:17:27.651Z,101791.56
2022-11-05T11:20:22.476Z,101782.69
2022-11-05T11:23:04.296Z,101788.47
2022-11-05T11:25:56.190Z,101781.84
2022-11-05T11:28:27.057Z,101776.25
2022-11-05T11:31:03.547Z,101774.94
2022-11-05T11:33:31.776Z,101770.25
2022-11-05T11:36:01.388Z,101773.59
2022-11-05T11:38:34.441Z,101769.19
2022-11-05T11:41:09.273Z,101766.47
2022-11-05T11:43:40.839Z,101775.31
2022-11-05T11:46:16.511Z,101771.97
2022-11-05T11:48:47.461Z,101776.44
2022-11-05T11:51:40.662Z,101773.63
2022-11-05T11:54:28.869Z,101770.94
2022-11-05T11:56:58.036Z,101770.38
2022-11-05T11:59:54.037Z,101761.81
2022-11-05T12:02:38.787Z,101765.19
2022-11-05T12:05:27.785Z,101767.78
2022-11-05T12:07:58.159Z,101763.91
2022-11-05T12:10:49.934Z,101764.59
2022-11-05T12:13:19.473Z,101761.59
2022-11-05T12:15:55.213Z,101767.28
2022-11-05T12:18:47.724Z,101765.78
2022-11-05T12:21:51.323Z,101766.53
2022-11-05T12:24:48.891Z,101763.94
2022-11-05T12:27:26.098Z,101755.63
2022-11-05T12:30:03.408Z,101749.28
2022-11-05T12:32:38.584Z,101745.78
2022-11-05T12:35:12.219Z,101745.78
2022-11-05T12:37:46.383Z,101747.16
2022-11-05T12:40:34.803Z,101751.41
2022-11-05T12:43:11.724Z,101741.97
2022-11-05T12:46:01.534Z,101746.31
2022-11-05T12:49:01.148Z,101739.69
2022-11-05T12:52:03.218Z,101736.66
2022-11-05T12:54:32.817Z,101733.31
2022-11-05T12:57:03.525Z,101726.94
2022-11-05T12:59:56.057Z,101735.00
2022-11-05T13:02:48.073Z,101725.47
2022-11-05T13:05:36.541Z,101714.50
2022-11-05T13:08:10.512Z,101715.66
2022-11-05T13:10:44.674Z,101719.41
2022-11-05T13:13:21.066Z,101721.16
2022-11-05T13:16:05.266Z,101703.84
2022-11-05T13:18:47.346Z,101694.59
2022-11-05T13:21:19.785Z,101700.06
2022-11-05T13:24:01.563Z,101695.63
2022-11-05T13:26:37.588Z,101694.03
2022-11-05T13:29:04.105Z,101693.47
2022-11-05T13:31:36.480Z,101680.75
2022-11-05T13:34:11.145Z,101684.38
2022-11-05T13:37:19.073Z,101676.31
2022-11-05T13:39:47.622Z,101680.06
2022-11-05T13:42:51.858Z,101672.97
2022-11-05T13:45:44.948Z,101676.59
2022-11-05T13:48:49.390Z,101673.59
2022-11-05T13:51:41.025Z,101668.56
2022-11-05T13:54:30.936Z,101668.72
2022-11-05T13:57:06.279Z,101672.91
2022-11-05T13:59:51.805Z,101673.19
2022-11-05T14:02:26.632Z,101679.81
2022-11-05T14:05:01.967Z,101683.69
2022-11-05T14:07:43.181Z,101683.13
2022-11-05T14:10:28.408Z,101691.22
2022-11-05T14:12:57.387Z,101683.56
2022-11-05T14:15:28.932Z,101687.19
2022-11-05T14:18:05.527Z,101680.28
2022-11-05T14:20:32.052Z,101681.56
2022-11-05T14:23:25.206Z,101677.97
2022-11-05T14:25:54.626Z,101678.09
2022-11-05T14:28:38.751Z,101679.44
2022-11-05T14:31:31.411Z,101677.97
2022-11-05T14:34:13.151Z,101680.88
2022-11-05T14:36:44.518Z,101673.06
2022-11-05T14:39:28.201Z,101674.41
2022-11-05T14:41:57.737Z,101675.53
2022-11-05T14:44:25.880Z,101684.03
2022-11-05T14:46:56.273Z,101671.94
2022-11-05T14:49:27.154Z,101684.94
2022-11-05T14:51:56.705Z,101684.19
2022-11-05T14:54:29.604Z,101683.31
2022-11-05T14:56:59.903Z,101678.41
2022-11-05T14:59:31.565Z,101678.28
2022-11-05T15:02:03.861Z,101688.53
2022-11-05T15:04:36.260Z,101678.56
2022-11-05T15:07:02.864Z,101681.44
2022-11-05T15:09:40.401Z,101671.66
2022-11-05T15:12:30.180Z,101659.53
2022-11-05T15:15:02.216Z,101670.78
2022-11-05T15:18:08.196Z,101672.81
2022-11-05T15:20:40.753Z,101663.88
2022-11-05T15:23:16.918Z,101665.91
2022-11-05T15:26:05.013Z,101660.09
2022-11-05T15:28:37.246Z,101661.84
2022-11-05T15:31:12.980Z,101669.91
2022-11-05T15:33:45.098Z,101665.44
2022-11-05T15:36:29.346Z,101663.13
2022-11-05T15:39:27.795Z,101659.81
2022-11-05T15:41:46.881Z,101655.91
2022-11-05T15:44:32.996Z,101657.94
2022-11-05T15:47:08.969Z,101652.00
2022-11-05T15:49:35.719Z,101666.69
2022-11-05T15:52:02.280Z,101666.97
2022-11-05T15:54:30.535Z,101648.38
2022-11-05T15:56:59.600Z,101656.03
2022-11-05T15:59:29.283Z,101665.97
2022-11-05T16:02:26.996Z,101650.97
2022-11-05T16:04:53.655Z,101652.88
2022-11-05T16:07:21.004Z,101656.72
2022-11-05T16:09:59.516Z,101647.25
2022-11-05T16:12:35.031Z,101643.34
2022-11-05T16:15:19.902Z,101647.50
2022-11-05T16:17:51.611Z,101649.09
2022-11-05T16:20:25.721Z,101649.38
2022-11-05T16:22:55.738Z,101648.50
2022-11-05T16:25:22.432Z,101639.44
2022-11-05T16:27:49.094Z,101636.13
2022-11-05T16:30:17.759Z,101637.00
2022-11-05T16:32:44.646Z,101636.13
2022-11-05T16:35:23.075Z,101638.97
2022-11-05T16:38:03.146Z,101640.38
2022-11-05T16:40:29.713Z,101645.28
2022-11-05T16:43:36.820Z,101625.84
2022-11-05T16:46:03.396Z,101625.09
2022-11-05T16:48:29.962Z,101637.66
2022-11-05T16:50:56.505Z,101635.47
2022-11-05T16:53:23.483Z,101639.94
2022-11-05T16:55:50.150Z,101629.28
2022-11-05T16:58:21.973Z,101621.34
2022-11-05T17:00:50.891Z,101628.69
2022-11-05T17:03:17.797Z,101633.41
2022-11-05T17:05:44.535Z,101643.50
2022-11-05T17:08:16.163Z,101629.97
2022-11-05T17:10:42.773Z,101635.13
2022-11-05T17:13:14.797Z,101633.38
2022-11-05T17:15:43.776Z,101640.44
2022-11-05T17:18:16.920Z,101641.56
2022-11-05T17:20:48.189Z,101638.00
2022-11-05T17:23:17.731Z,101623.88
2022-11-05T17:25:47.089Z,101625.00
2022-11-05T17:28:14.468Z,101631.34
2022-11-05T17:30:42.042Z,101627.16
2022-11-05T17:33:11.257Z,101629.03
2022-11-05T17:35:39.753Z,101636.97
2022-11-05T17:38:06.354Z,101632.63
2022-11-05T17:40:37.120Z,101631.91
2022-11-05T17:43:04.164Z,101638.50
2022-11-05T17:45:33.598Z,101629.84
2022-11-05T17:48:03.213Z,101641.34
2022-11-05T17:50:32.220Z,101629.56
2022-11-05T17:52:58.749Z,101663.97
2022-11-05T17:55:25.822Z,101660.34
2022-11-05T17:57:56.216Z,101655.91
2022-11-05T18:00:24.176Z,101668.53
2022-11-05T18:02:53.067Z,101661.06
2022-11-05T18:05:21.738Z,101661.63
2022-11-05T18:07:51.617Z,101666.06
2022-11-05T18:10:18.244Z,101673.88
2022-11-05T18:12:49.601Z,101661.22
2022-11-05T18:15:17.400Z,101652.56
2022-11-05T18:17:45.574Z,101651.16
2022-11-05T18:20:18.924Z,101660.22
2022-11-05T18:22:49.298Z,101658.50
2022-11-05T18:25:16.544Z,101647.56
2022-11-05T18:27:43.102Z,101656.88
2022-11-05T18:30:11.059Z,101649.41
2022-11-05T18:32:38.819Z,101649.41
2022-11-05T18:35:05.691Z,101649.41
2022-11-05T18:37:34.485Z,101648.56
2022-11-05T18:40:01.045Z,101652.16
2022-11-05T18:42:27.667Z,101662.09
2022-11-05T18:44:54.256Z,101671.28
2022-11-05T18:47:20.931Z,101664.81
2022-11-05T18:49:49.733Z,101647.53
2022-11-05T18:52:16.426Z,101659.50
2022-11-05T18:54:43.032Z,101668.41
2022-11-05T18:57:09.585Z,101663.06
2022-11-05T18:59:39.914Z,101648.97
2022-11-05T19:02:08.249Z,101646.81
2022-11-05T19:04:38.280Z,101629.66
2022-11-05T19:07:11.566Z,101630.84
2022-11-05T19:09:40.318Z,101628.13
2022-11-05T19:12:09.487Z,101629.13
2022-11-05T19:14:36.389Z,101627.38
2022-11-05T19:17:04.284Z,101610.94
2022-11-05T19:19:31.084Z,101618.59
2022-11-05T19:21:57.676Z,101595.53
2022-11-05T19:24:24.272Z,101605.88
2022-11-05T19:26:50.937Z,101615.41
2022-11-05T19:29:17.535Z,101615.56
2022-11-05T19:31:44.386Z,101619.53
2022-11-05T19:34:15.780Z,101621.28
2022-11-05T19:36:42.882Z,101615.50
2022-11-05T19:39:13.527Z,101599.25
2022-11-05T19:41:40.566Z,101594.06
2022-11-05T19:44:09.487Z,101579.34
2022-11-05T19:46:36.036Z,101584.47
2022-11-05T19:49:02.821Z,101586.00
2022-11-05T19:51:31.522Z,101577.63
2022-11-05T19:53:59.935Z,101584.97
2022-11-05T19:56:29.858Z,101589.06
2022-11-05T19:58:57.502Z,101599.00
2022-11-05T20:01:25.951Z,101599.00
2022-11-05T20:03:54.962Z,101592.06
2022-11-05T20:06:34.690Z,101596.28
2022-11-05T20:09:25.529Z,101601.75
2022-11-05T20:11:56.476Z,101588.22
2022-11-05T20:14:24.923Z,101588.94
2022-11-05T20:16:53.544Z,101595.25
2022-11-05T20:19:21.832Z,101587.06
2022-11-05T20:21:49.022Z,101584.22
2022-11-05T20:24:24.311Z,101576.03
2022-11-05T20:26:53.855Z,101571.44
2022-11-05T20:29:20.424Z,101576.91
2022-11-05T20:31:50.066Z,101576.03
2022-11-05T20:34:16.726Z,101583.50
2022-11-05T20:36:43.335Z,101573.84
2022-11-05T20:39:10.364Z,101571.38
2022-11-05T20:41:36.869Z,101587.63
2022-11-05T20:44:04.700Z,101586.59
2022-11-05T20:46:32.824Z,101587.91
2022-11-05T20:49:01.966Z,101570.50
2022-11-05T20:51:28.557Z,101592.34
2022-11-05T20:53:56.890Z,101581.41
2022-11-05T20:56:29.471Z,101587.91
2022-11-05T20:59:00.409Z,101588.88
2022-11-05T21:01:32.956Z,101601.53
2022-11-05T21:04:00.091Z,101589.13
2022-11-05T21:06:26.796Z,101609.72
2022-11-05T21:08:53.977Z,101605.25
2022-11-05T21:11:20.737Z,101597.78
2022-11-05T21:13:47.661Z,101603.13
2022-11-05T21:16:18.489Z,101597.19
2022-11-05T21:18:46.053Z,101599.66
2022-11-05T21:21:17.856Z,101597.59
2022-11-05T21:23:44.695Z,101588.69
2022-11-05T21:26:13.942Z,101586.59
2022-11-05T21:28:41.686Z,101593.66
2022-11-05T21:31:09.354Z,101598.53
2022-11-05T21:33:38.711Z,101588.25
2022-11-05T21:36:10.501Z,101589.72
2022-11-05T21:38:37.284Z,101580.09
2022-11-05T21:41:04.815Z,101581.78
2022-11-05T21:43:31.730Z,101588.13
2022-11-05T21:46:01.856Z,101589.72
2022-11-05T21:48:34.308Z,101578.81
2022-11-05T21:51:19.425Z,101582.41
2022-11-05T21:54:04.835Z,101577.69
2022-11-05T21:56:50.385Z,101569.78
2022-11-05T21:59:38.574Z,101569.16
2022-11-05T22:02:05.525Z,101559.97
2022-11-05T22:04:34.510Z,101563.44
2022-11-05T22:07:01.259Z,101563.44
2022-11-05T22:09:28.112Z,101572.38
2022-11-05T22:11:55.247Z,101563.31
2022-11-05T22:14:22.108Z,101558.00
2022-11-05T22:16:48.844Z,101551.53
2022-11-05T22:19:15.614Z,101548.81
2022-11-05T22:21:42.340Z,101549.06
2022-11-05T22:24:09.395Z,101546.81
2022-11-05T22:26:36.978Z,101545.81
2022-11-05T22:29:04.538Z,101547.81
2022-11-05T22:31:35.954Z,101538.31
2022-11-05T22:34:04.359Z,101552.41
2022-11-05T22:36:30.945Z,101538.91
2022-11-05T22:38:57.437Z,101542.34
2022-11-05T22:41:24.083Z,101542.09
2022-11-05T22:43:50.886Z,101541.09
2022-11-05T22:46:21.802Z,101532.78
2022-11-05T22:48:48.980Z,101526.25
2022-11-05T22:51:20.290Z,101537.50
2022-11-05T22:53:47.482Z,101529.69
2022-11-05T22:56:18.829Z,101526.72
2022-11-05T22:58:45.543Z,101507.41
2022-11-05T23:01:13.455Z,101515.22
2022-11-05T23:03:41.808Z,101511.50
2022-11-05T23:06:34.081Z,101512.34
2022-11-05T23:09:20.557Z,101507.16
2022-11-05T23:11:50.296Z,101512.88
2022-11-05T23:14:17.132Z,101515.13
2022-11-05T23:17:02.807Z,101500.78
2022-11-05T23:19:48.296Z,101503.88
2022-11-05T23:22:36.955Z,101496.22
2022-11-05T23:25:05.302Z,101489.31
2022-11-05T23:27:38.496Z,101494.00
2022-11-05T23:30:11.983Z,101488.81
2022-11-05T23:32:38.831Z,101487.09
2022-11-05T23:35:06.328Z,101491.97
2022-11-05T23:37:51.544Z,101486.75
2022-11-05T23:40:24.223Z,101488.13
2022-11-05T23:43:23.045Z,101495.47
2022-11-05T23:45:49.536Z,101486.41
2022-11-05T23:48:37.102Z,101485.53
2022-11-05T23:51:08.018Z,101482.09
2022-11-05T23:53:37.379Z,101478.63
2022-11-05T23:56:12.780Z,101480.13
2022-11-05T23:58:42.802Z,101482.13
